createdAt,value
2019-04-30T00:00:34.737Z,89.36
2019-04-30T00:01:33.026Z,89.26
2019-04-30T00:02:35.912Z,87.74
2019-04-30T00:03:35.107Z,87.07
2019-04-30T00:04:37.133Z,86.88
2019-04-30T00:05:35.145Z,86.40
2019-04-30T00:06:37.650Z,85.83
2019-04-30T00:07:33.363Z,86.40
2019-04-30T00:08:35.571Z,85.93
2019-04-30T00:09:35.160Z,85.73
2019-04-30T00:10:39.631Z,85.25
2019-04-30T00:11:33.586Z,85.45
2019-04-30T00:12:35.936Z,85.06
2019-04-30T00:13:35.721Z,87.16
2019-04-30T00:14:39.932Z,87.54
2019-04-30T00:15:35.612Z,88.12
2019-04-30T00:16:36.210Z,89.45
2019-04-30T00:17:35.880Z,88.12
2019-04-30T00:18:37.930Z,89.07
2019-04-30T00:19:35.844Z,91.07
2019-04-30T00:20:37.016Z,90.50
2019-04-30T00:21:36.012Z,90.41
2019-04-30T00:22:38.500Z,90.88
2019-04-30T00:23:35.897Z,91.74
2019-04-30T00:24:35.471Z,91.83
2019-04-30T00:25:35.157Z,92.50
2019-04-30T00:26:35.408Z,91.93
2019-04-30T00:27:35.595Z,90.88
2019-04-30T00:28:35.363Z,91.93
2019-04-30T00:29:35.634Z,88.88
2019-04-30T00:30:35.041Z,90.79
2019-04-30T00:31:35.005Z,92.22
2019-04-30T00:32:39.052Z,91.55
2019-04-30T00:33:35.342Z,93.36
2019-04-30T00:34:35.869Z,92.07
2019-04-30T00:35:35.551Z,92.26
2019-04-30T00:36:37.427Z,92.46
2019-04-30T00:37:35.302Z,92.41
2019-04-30T00:38:37.826Z,91.41
2019-04-30T00:39:35.532Z,90.45
2019-04-30T00:40:35.307Z,90.69
2019-04-30T00:41:35.447Z,90.50
2019-04-30T00:42:35.746Z,90.22
2019-04-30T00:43:37.594Z,92.32
2019-04-30T00:44:35.732Z,92.22
2019-04-30T00:45:35.516Z,92.22
2019-04-30T00:46:36.462Z,93.17
2019-04-30T00:47:39.566Z,91.64
2019-04-30T00:48:35.779Z,95.12
2019-04-30T00:49:35.726Z,94.17
2019-04-30T00:50:37.174Z,95.12
2019-04-30T00:51:35.839Z,95.03
2019-04-30T00:52:37.350Z,93.79
2019-04-30T00:53:35.995Z,95.79
2019-04-30T00:54:36.010Z,94.07
2019-04-30T00:55:40.215Z,93.79
2019-04-30T00:56:36.121Z,95.12
2019-04-30T00:57:37.324Z,95.89
2019-04-30T00:58:36.234Z,95.98
2019-04-30T00:59:39.766Z,95.70
2019-04-30T01:00:37.157Z,95.89
2019-04-30T01:01:37.412Z,95.89
2019-04-30T01:02:36.461Z,95.79
2019-04-30T01:03:39.455Z,95.03
2019-04-30T01:04:36.574Z,94.74
2019-04-30T01:05:39.552Z,96.66
2019-04-30T01:06:36.687Z,96.66
2019-04-30T01:07:39.657Z,96.66
2019-04-30T01:08:36.797Z,96.46
2019-04-30T01:09:39.643Z,96.27
2019-04-30T01:10:36.911Z,96.56
2019-04-30T01:11:39.764Z,97.42
2019-04-30T01:12:43.864Z,96.66
2019-04-30T01:13:38.923Z,96.94
2019-04-30T01:14:38.605Z,96.17
2019-04-30T01:15:38.952Z,95.61
2019-04-30T01:16:39.394Z,95.89
2019-04-30T01:17:38.246Z,96.08
2019-04-30T01:18:38.987Z,95.89
2019-04-30T01:19:39.515Z,96.37
2019-04-30T01:20:38.663Z,96.37
2019-04-30T01:21:40.170Z,95.32
2019-04-30T01:22:38.886Z,96.66
2019-04-30T01:23:41.794Z,96.27
2019-04-30T01:24:38.696Z,95.89
2019-04-30T01:25:38.856Z,96.17
2019-04-30T01:26:39.345Z,95.89
2019-04-30T01:27:39.495Z,96.56
2019-04-30T01:28:38.594Z,96.37
2019-04-30T01:29:43.903Z,96.84
2019-04-30T01:30:39.363Z,96.37
2019-04-30T01:31:40.807Z,96.75
2019-04-30T01:32:39.495Z,96.75
2019-04-30T01:33:39.031Z,96.46
2019-04-30T01:34:39.532Z,96.37
2019-04-30T01:35:40.528Z,96.75
2019-04-30T01:36:39.278Z,97.13
2019-04-30T01:37:38.743Z,96.84
2019-04-30T01:38:40.254Z,96.61
2019-04-30T01:39:39.153Z,95.70
2019-04-30T01:40:38.606Z,96.17
2019-04-30T01:41:40.185Z,96.56
2019-04-30T01:42:41.164Z,96.94
2019-04-30T01:43:38.776Z,97.13
2019-04-30T01:44:39.261Z,96.94
2019-04-30T01:45:38.889Z,97.03
2019-04-30T01:46:39.099Z,97.42
2019-04-30T01:47:39.691Z,97.22
2019-04-30T01:48:39.380Z,97.61
2019-04-30T01:49:42.759Z,97.22
2019-04-30T01:50:42.066Z,97.89
2019-04-30T01:51:39.246Z,97.32
2019-04-30T01:52:41.153Z,97.61
2019-04-30T01:53:43.582Z,98.56
2019-04-30T01:54:39.401Z,98.27
2019-04-30T01:55:41.493Z,98.27
2019-04-30T01:56:39.509Z,96.89
2019-04-30T01:57:39.567Z,98.08
2019-04-30T01:58:39.624Z,97.85
2019-04-30T01:59:39.682Z,97.32
2019-04-30T02:00:39.736Z,98.22
2019-04-30T02:01:39.792Z,98.03
2019-04-30T02:02:39.849Z,97.71
2019-04-30T02:03:40.120Z,97.61
2019-04-30T02:04:39.961Z,97.27
2019-04-30T02:05:40.019Z,97.17
2019-04-30T02:06:40.074Z,97.32
2019-04-30T02:07:40.381Z,97.75
2019-04-30T02:08:40.187Z,97.46
2019-04-30T02:09:40.244Z,96.89
2019-04-30T02:10:40.453Z,97.17
2019-04-30T02:11:40.359Z,97.17
2019-04-30T02:12:40.416Z,97.17
2019-04-30T02:13:40.473Z,97.94
2019-04-30T02:14:40.527Z,97.56
2019-04-30T02:15:40.584Z,97.66
2019-04-30T02:16:40.640Z,97.08
2019-04-30T02:17:40.696Z,97.75
2019-04-30T02:18:40.752Z,97.27
2019-04-30T02:19:40.809Z,97.56
2019-04-30T02:20:40.865Z,97.37
2019-04-30T02:21:40.921Z,97.75
2019-04-30T02:22:40.980Z,98.03
2019-04-30T02:23:41.034Z,97.94
2019-04-30T02:24:41.090Z,98.32
2019-04-30T02:25:41.148Z,97.75
2019-04-30T02:26:41.202Z,98.03
2019-04-30T02:27:41.260Z,98.03
2019-04-30T02:28:41.316Z,98.03
2019-04-30T02:29:41.372Z,98.90
2019-04-30T02:30:41.430Z,98.80
2019-04-30T02:31:41.486Z,98.51
2019-04-30T02:32:41.542Z,98.22
2019-04-30T02:33:41.605Z,99.08
2019-04-30T02:34:44.216Z,99.18
2019-04-30T02:35:41.712Z,98.80
2019-04-30T02:36:41.767Z,98.99
2019-04-30T02:37:43.537Z,98.90
2019-04-30T02:38:41.881Z,98.99
2019-04-30T02:39:41.941Z,99.18
2019-04-30T02:40:42.545Z,99.99
2019-04-30T02:41:42.053Z,99.18
2019-04-30T02:42:42.105Z,99.66
2019-04-30T02:43:42.160Z,98.99
2019-04-30T02:44:42.216Z,98.51
2019-04-30T02:45:42.343Z,99.46
2019-04-30T02:46:42.328Z,99.18
2019-04-30T02:47:42.386Z,99.18
2019-04-30T02:48:42.442Z,99.27
2019-04-30T02:49:42.496Z,98.80
2019-04-30T02:50:42.559Z,98.99
2019-04-30T02:51:42.612Z,98.70
2019-04-30T02:52:42.666Z,99.08
2019-04-30T02:53:42.723Z,99.95
2019-04-30T02:54:42.780Z,99.56
2019-04-30T02:55:42.836Z,99.99
2019-04-30T02:56:42.890Z,99.95
2019-04-30T02:57:42.951Z,99.99
2019-04-30T02:58:43.005Z,99.95
2019-04-30T02:59:43.061Z,99.95
2019-04-30T03:00:43.119Z,99.99
2019-04-30T03:01:43.192Z,99.99
2019-04-30T03:02:43.228Z,99.99
2019-04-30T03:03:43.286Z,99.99
2019-04-30T03:04:43.341Z,99.95
2019-04-30T03:05:43.397Z,99.99
2019-04-30T03:06:43.460Z,99.85
2019-04-30T03:07:43.516Z,99.99
2019-04-30T03:08:43.565Z,99.99
2019-04-30T03:09:43.624Z,99.99
2019-04-30T03:10:43.679Z,99.95
2019-04-30T03:11:43.734Z,99.99
2019-04-30T03:12:43.792Z,99.85
2019-04-30T03:13:43.846Z,99.99
2019-04-30T03:14:43.903Z,99.99
2019-04-30T03:15:43.959Z,99.99
2019-04-30T03:16:44.021Z,99.99
2019-04-30T03:17:44.071Z,99.99
2019-04-30T03:18:44.127Z,99.99
2019-04-30T03:19:44.187Z,99.99
2019-04-30T03:20:44.239Z,99.99
2019-04-30T03:21:44.298Z,99.99
2019-04-30T03:22:44.354Z,99.99
2019-04-30T03:23:44.407Z,99.99
2019-04-30T03:24:44.466Z,99.99
2019-04-30T03:25:44.524Z,99.99
2019-04-30T03:26:44.577Z,99.99
2019-04-30T03:27:44.633Z,99.99
2019-04-30T03:28:44.689Z,99.99
2019-04-30T03:29:44.746Z,99.99
2019-04-30T03:30:44.803Z,99.99
2019-04-30T03:31:45.754Z,99.99
2019-04-30T03:32:50.484Z,99.99
2019-04-30T03:33:44.975Z,99.99
2019-04-30T03:34:45.031Z,99.99
2019-04-30T03:35:47.716Z,99.99
2019-04-30T03:36:45.139Z,99.99
2019-04-30T03:37:45.196Z,99.99
2019-04-30T03:38:45.255Z,99.99
2019-04-30T03:39:45.342Z,99.99
2019-04-30T03:40:45.363Z,99.99
2019-04-30T03:41:45.420Z,99.99
2019-04-30T03:42:45.482Z,99.99
2019-04-30T03:43:45.546Z,99.99
2019-04-30T03:44:45.598Z,99.99
2019-04-30T03:45:45.648Z,99.99
2019-04-30T03:46:45.703Z,99.99
2019-04-30T03:47:45.758Z,99.99
2019-04-30T03:48:45.814Z,99.99
2019-04-30T03:49:45.872Z,99.99
2019-04-30T03:50:53.429Z,99.99
2019-04-30T03:51:45.984Z,99.99
2019-04-30T03:52:46.038Z,99.99
2019-04-30T03:53:46.096Z,99.99
2019-04-30T03:54:46.152Z,99.99
2019-04-30T03:55:46.208Z,99.99
2019-04-30T03:56:46.266Z,99.99
2019-04-30T03:57:46.319Z,99.99
2019-04-30T03:58:46.377Z,99.99
2019-04-30T03:59:46.439Z,99.99
2019-04-30T04:00:46.781Z,99.99
2019-04-30T04:01:46.559Z,99.99
2019-04-30T04:02:46.601Z,99.99
2019-04-30T04:03:46.658Z,99.99
2019-04-30T04:04:49.435Z,99.99
2019-04-30T04:05:46.772Z,99.99
2019-04-30T04:06:49.051Z,99.99
2019-04-30T04:07:52.523Z,99.99
2019-04-30T04:08:48.909Z,99.99
2019-04-30T04:09:49.696Z,99.99
2019-04-30T04:10:47.052Z,99.99
2019-04-30T04:11:47.108Z,99.99
2019-04-30T04:12:49.600Z,99.99
2019-04-30T04:13:49.416Z,99.99
2019-04-30T04:14:47.281Z,99.99
2019-04-30T04:15:49.837Z,99.99
2019-04-30T04:16:50.408Z,99.99
2019-04-30T04:17:50.189Z,99.99
2019-04-30T04:18:49.801Z,99.99
2019-04-30T04:19:49.428Z,99.99
2019-04-30T04:20:51.986Z,99.99
2019-04-30T04:21:50.717Z,99.99
2019-04-30T04:22:49.673Z,99.99
2019-04-30T04:23:49.281Z,99.99
2019-04-30T04:24:50.076Z,99.99
2019-04-30T04:25:49.875Z,99.99
2019-04-30T04:26:50.183Z,99.99
2019-04-30T04:27:50.545Z,99.99
2019-04-30T04:28:49.684Z,99.99
2019-04-30T04:29:50.967Z,99.99
2019-04-30T04:30:50.588Z,99.99
2019-04-30T04:31:50.091Z,99.99
2019-04-30T04:32:50.078Z,99.99
2019-04-30T04:33:49.634Z,99.99
2019-04-30T04:34:50.421Z,99.99
2019-04-30T04:35:49.779Z,99.99
2019-04-30T04:36:50.469Z,99.99
2019-04-30T04:37:49.533Z,99.99
2019-04-30T04:38:50.639Z,99.99
2019-04-30T04:39:50.001Z,99.99
2019-04-30T04:40:50.171Z,99.99
2019-04-30T04:41:50.375Z,99.99
2019-04-30T04:42:49.448Z,99.99
2019-04-30T04:43:50.341Z,99.99
2019-04-30T04:44:50.262Z,99.99
2019-04-30T04:45:49.852Z,99.99
2019-04-30T04:46:50.362Z,99.99
2019-04-30T04:47:50.358Z,99.99
2019-04-30T04:48:49.568Z,99.99
2019-04-30T04:49:53.189Z,99.99
2019-04-30T04:50:50.203Z,99.99
2019-04-30T04:51:49.429Z,99.99
2019-04-30T04:52:49.763Z,99.99
2019-04-30T04:53:50.047Z,99.99
2019-04-30T04:54:50.585Z,99.99
2019-04-30T04:55:50.050Z,99.99
2019-04-30T04:56:50.431Z,99.99
2019-04-30T04:57:50.179Z,99.99
2019-04-30T04:58:50.307Z,99.99
2019-04-30T04:59:50.242Z,99.99
2019-04-30T05:00:49.863Z,99.99
2019-04-30T05:01:49.919Z,99.99
2019-04-30T05:02:49.999Z,99.75
2019-04-30T05:03:50.031Z,99.99
2019-04-30T05:04:50.092Z,99.99
2019-04-30T05:05:50.158Z,99.99
2019-04-30T05:06:50.201Z,99.99
2019-04-30T05:07:50.256Z,99.99
2019-04-30T05:08:50.318Z,99.99
2019-04-30T05:09:50.369Z,99.99
2019-04-30T05:10:50.433Z,99.99
2019-04-30T05:11:50.483Z,99.99
2019-04-30T05:12:51.036Z,99.99
2019-04-30T05:13:50.595Z,99.99
2019-04-30T05:14:50.654Z,99.99
2019-04-30T05:15:51.545Z,99.99
2019-04-30T05:16:50.764Z,99.99
2019-04-30T05:17:50.820Z,99.99
2019-04-30T05:18:50.877Z,99.99
2019-04-30T05:19:50.940Z,99.95
2019-04-30T05:20:51.112Z,99.99
2019-04-30T05:21:51.749Z,99.99
2019-04-30T05:22:51.140Z,99.99
2019-04-30T05:23:51.178Z,99.99
2019-04-30T05:24:51.215Z,99.99
2019-04-30T05:25:51.294Z,99.99
2019-04-30T05:26:51.358Z,99.99
2019-04-30T05:27:51.486Z,99.99
2019-04-30T05:28:52.956Z,99.99
2019-04-30T05:29:51.498Z,99.99
2019-04-30T05:30:51.556Z,99.99
2019-04-30T05:31:51.657Z,99.99
2019-04-30T05:32:51.716Z,99.99
2019-04-30T05:33:51.725Z,99.99
2019-04-30T05:34:51.784Z,99.99
2019-04-30T05:35:51.843Z,99.99
2019-04-30T05:36:51.895Z,99.99
2019-04-30T05:37:51.970Z,99.99
2019-04-30T05:38:52.012Z,99.99
2019-04-30T05:39:52.092Z,99.99
2019-04-30T05:40:52.155Z,99.99
2019-04-30T05:41:52.260Z,99.99
2019-04-30T05:42:52.605Z,99.99
2019-04-30T05:43:52.297Z,99.99
2019-04-30T05:44:52.370Z,99.99
2019-04-30T05:45:52.408Z,99.99
2019-04-30T05:46:52.521Z,99.99
2019-04-30T05:47:52.522Z,99.99
2019-04-30T05:48:52.577Z,99.99
2019-04-30T05:49:52.636Z,99.99
2019-04-30T05:50:53.014Z,99.99
2019-04-30T05:51:55.655Z,99.99
2019-04-30T05:52:52.841Z,99.99
2019-04-30T05:53:52.871Z,99.99
2019-04-30T05:54:52.961Z,99.99
2019-04-30T05:55:53.013Z,99.99
2019-04-30T05:56:53.071Z,99.99
2019-04-30T05:57:56.376Z,99.99
2019-04-30T05:58:53.167Z,99.99
2019-04-30T05:59:53.237Z,99.99
2019-04-30T06:00:53.284Z,99.99
2019-04-30T06:01:53.354Z,99.99
2019-04-30T06:02:53.422Z,99.99
2019-04-30T06:03:53.448Z,99.99
2019-04-30T06:04:53.724Z,99.99
2019-04-30T06:05:54.818Z,99.99
2019-04-30T06:06:53.885Z,99.99
2019-04-30T06:07:55.448Z,99.99
2019-04-30T06:09:03.984Z,99.99
2019-04-30T06:09:54.125Z,99.99
2019-04-30T06:10:53.846Z,99.99
2019-04-30T06:11:53.951Z,99.99
2019-04-30T06:12:54.324Z,99.99
2019-04-30T06:13:54.380Z,99.99
2019-04-30T06:14:54.101Z,99.99
2019-04-30T06:15:54.517Z,99.99
2019-04-30T06:16:54.545Z,99.85
2019-04-30T06:18:00.938Z,99.85
2019-04-30T06:18:54.327Z,99.66
2019-04-30T06:19:54.361Z,99.85
2019-04-30T06:20:54.405Z,99.66
2019-04-30T06:22:04.928Z,99.99
2019-04-30T06:22:54.871Z,99.85
2019-04-30T06:23:54.580Z,99.85
2019-04-30T06:24:54.635Z,99.85
2019-04-30T06:25:59.414Z,99.28
2019-04-30T06:26:54.749Z,99.99
2019-04-30T06:27:54.888Z,99.80
2019-04-30T06:28:54.864Z,99.90
2019-04-30T06:29:54.927Z,99.23
2019-04-30T06:30:54.980Z,99.23
2019-04-30T06:31:55.038Z,99.14
2019-04-30T06:32:55.094Z,98.57
2019-04-30T06:33:55.152Z,98.75
2019-04-30T06:34:55.692Z,98.94
2019-04-30T06:35:55.268Z,98.75
2019-04-30T06:36:56.901Z,98.85
2019-04-30T06:37:55.382Z,98.47
2019-04-30T06:38:55.546Z,99.04
2019-04-30T06:39:55.596Z,99.33
2019-04-30T06:40:55.606Z,99.43
2019-04-30T06:42:05.007Z,98.94
2019-04-30T06:42:55.727Z,99.52
2019-04-30T06:43:55.836Z,99.71
2019-04-30T06:44:55.825Z,99.33
2019-04-30T06:45:55.855Z,99.04
2019-04-30T06:46:56.561Z,99.71
2019-04-30T06:47:55.963Z,99.80
2019-04-30T06:48:56.020Z,99.43
2019-04-30T06:49:56.078Z,98.66
2019-04-30T06:50:56.136Z,97.89
2019-04-30T06:51:56.195Z,98.85
2019-04-30T06:52:58.995Z,99.33
2019-04-30T06:53:56.310Z,99.04
2019-04-30T06:54:56.368Z,98.47
2019-04-30T06:55:56.426Z,98.08
2019-04-30T06:56:56.483Z,98.57
2019-04-30T06:58:09.639Z,97.99
2019-04-30T06:58:56.600Z,98.18
2019-04-30T06:59:56.659Z,97.56
2019-04-30T07:00:56.716Z,97.37
2019-04-30T07:01:58.931Z,97.42
2019-04-30T07:02:56.832Z,97.37
2019-04-30T07:03:59.219Z,97.66
2019-04-30T07:04:58.711Z,97.08
2019-04-30T07:05:58.608Z,96.61
2019-04-30T07:06:58.907Z,96.70
2019-04-30T07:08:02.599Z,96.61
2019-04-30T07:08:59.485Z,96.61
2019-04-30T07:10:00.907Z,96.42
2019-04-30T07:11:00.068Z,96.03
2019-04-30T07:11:59.216Z,96.13
2019-04-30T07:12:58.979Z,95.65
2019-04-30T07:13:59.840Z,95.56
2019-04-30T07:14:59.192Z,95.36
2019-04-30T07:15:58.523Z,95.36
2019-04-30T07:16:59.409Z,95.75
2019-04-30T07:17:59.119Z,96.13
2019-04-30T07:18:58.639Z,96.22
2019-04-30T07:19:59.668Z,95.27
2019-04-30T07:20:58.742Z,95.65
2019-04-30T07:21:59.419Z,95.94
2019-04-30T07:23:59.703Z,97.08
2019-04-30T07:24:59.599Z,97.08
2019-04-30T07:25:59.049Z,96.99
2019-04-30T07:27:01.024Z,96.70
2019-04-30T07:27:59.785Z,96.80
2019-04-30T07:28:59.810Z,96.22
2019-04-30T07:29:59.604Z,96.27
2019-04-30T07:31:10.197Z,96.61
2019-04-30T07:31:59.212Z,96.89
2019-04-30T07:32:59.692Z,96.61
2019-04-30T07:33:59.450Z,97.56
2019-04-30T07:34:59.478Z,97.47
2019-04-30T07:36:01.554Z,97.66
2019-04-30T07:37:13.278Z,96.99
2019-04-30T07:38:00.629Z,97.66
2019-04-30T07:38:59.991Z,97.42
2019-04-30T07:39:59.111Z,97.90
2019-04-30T07:40:59.204Z,96.56
2019-04-30T07:41:59.970Z,96.37
2019-04-30T07:42:59.297Z,95.56
2019-04-30T07:43:59.431Z,95.94
2019-04-30T07:45:00.680Z,96.22
2019-04-30T07:45:59.808Z,95.51
2019-04-30T07:47:01.884Z,94.46
2019-04-30T07:47:59.531Z,94.70
2019-04-30T07:49:00.091Z,94.22
2019-04-30T07:50:00.720Z,94.51
2019-04-30T07:50:59.660Z,94.60
2019-04-30T07:52:01.379Z,94.51
2019-04-30T07:53:05.503Z,95.17
2019-04-30T07:53:59.808Z,94.89
2019-04-30T07:55:00.632Z,94.60
2019-04-30T07:55:59.927Z,93.93
2019-04-30T07:57:00.589Z,93.50
2019-04-30T07:58:00.042Z,92.93
2019-04-30T07:59:00.777Z,93.02
2019-04-30T08:00:00.675Z,93.88
2019-04-30T08:01:00.217Z,92.93
2019-04-30T08:02:10.189Z,92.64
2019-04-30T08:03:00.336Z,92.64
2019-04-30T08:04:00.394Z,91.20
2019-04-30T08:05:00.452Z,90.16
2019-04-30T08:06:00.543Z,90.44
2019-04-30T08:07:00.638Z,90.25
2019-04-30T08:08:16.775Z,90.16
2019-04-30T08:09:01.150Z,90.20
2019-04-30T08:09:34.154Z,96.61
2019-04-30T08:10:00.744Z,90.63
2019-04-30T08:11:00.803Z,89.48
2019-04-30T08:12:00.993Z,89.10
2019-04-30T08:13:09.693Z,88.24
2019-04-30T08:14:01.838Z,87.76
2019-04-30T08:15:01.038Z,87.76
2019-04-30T08:16:01.095Z,87.66
2019-04-30T08:17:01.152Z,87.29
2019-04-30T08:18:05.549Z,86.04
2019-04-30T08:19:01.270Z,84.89
2019-04-30T08:20:01.335Z,84.99
2019-04-30T08:21:01.385Z,83.65
2019-04-30T08:22:01.764Z,82.60
2019-04-30T08:23:13.378Z,81.45
2019-04-30T08:24:01.868Z,81.74
2019-04-30T08:25:01.638Z,81.84
2019-04-30T08:26:01.694Z,80.30
2019-04-30T08:27:01.738Z,81.07
2019-04-30T08:28:01.840Z,81.65
2019-04-30T08:29:01.857Z,81.26
2019-04-30T08:30:01.911Z,80.40
2019-04-30T08:31:02.396Z,79.35
2019-04-30T08:32:02.066Z,78.11
2019-04-30T08:33:02.126Z,78.34
2019-04-30T08:34:02.141Z,79.49
2019-04-30T08:35:10.087Z,79.49
2019-04-30T08:36:02.257Z,80.06
2019-04-30T08:37:12.928Z,79.87
2019-04-30T08:38:02.374Z,78.91
2019-04-30T08:39:02.433Z,78.34
2019-04-30T08:40:03.570Z,79.00
2019-04-30T08:41:02.549Z,78.63
2019-04-30T08:42:02.605Z,78.14
2019-04-30T08:43:02.664Z,77.76
2019-04-30T08:44:02.726Z,76.42
2019-04-30T08:45:02.782Z,75.85
2019-04-30T08:46:02.837Z,76.42
2019-04-30T08:47:02.896Z,77.76
2019-04-30T08:48:02.983Z,78.76
2019-04-30T08:49:03.011Z,77.38
2019-04-30T08:50:03.532Z,77.38
2019-04-30T08:51:03.126Z,76.81
2019-04-30T08:52:03.526Z,75.76
2019-04-30T08:53:03.279Z,74.99
2019-04-30T08:54:03.302Z,74.90
2019-04-30T08:55:13.257Z,75.76
2019-04-30T08:56:03.417Z,75.85
2019-04-30T08:57:03.477Z,76.33
2019-04-30T08:58:09.848Z,76.62
2019-04-30T08:59:03.603Z,77.28
2019-04-30T09:00:03.654Z,77.48
2019-04-30T09:01:03.723Z,76.08
2019-04-30T09:02:13.675Z,74.74
2019-04-30T09:03:03.844Z,72.83
2019-04-30T09:04:03.912Z,70.15
2019-04-30T09:05:03.995Z,70.05
2019-04-30T09:06:04.733Z,68.90
2019-04-30T09:07:04.058Z,69.38
2019-04-30T09:08:04.118Z,69.80
2019-04-30T09:09:04.179Z,70.76
2019-04-30T09:10:04.876Z,71.71
2019-04-30T09:11:04.292Z,71.71
2019-04-30T09:12:04.352Z,70.15
2019-04-30T09:13:04.410Z,70.53
2019-04-30T09:14:04.468Z,70.72
2019-04-30T09:15:04.544Z,71.48
2019-04-30T09:16:04.587Z,71.48
2019-04-30T09:17:04.656Z,72.16
2019-04-30T09:18:08.248Z,71.77
2019-04-30T09:19:04.760Z,68.52
2019-04-30T09:20:04.820Z,66.89
2019-04-30T09:21:06.483Z,67.88
2019-04-30T09:22:14.421Z,67.66
2019-04-30T09:23:04.994Z,68.94
2019-04-30T09:24:05.053Z,70.66
2019-04-30T09:25:05.111Z,71.04
2019-04-30T09:26:05.169Z,71.52
2019-04-30T09:27:05.232Z,71.91
2019-04-30T09:28:05.300Z,71.66
2019-04-30T09:29:05.344Z,71.27
2019-04-30T09:30:05.403Z,70.41
2019-04-30T09:31:05.462Z,69.83
2019-04-30T09:32:05.523Z,68.68
2019-04-30T09:33:05.581Z,68.68
2019-04-30T09:34:15.282Z,69.26
2019-04-30T09:35:05.698Z,69.07
2019-04-30T09:36:05.757Z,68.87
2019-04-30T09:37:05.817Z,68.27
2019-04-30T09:38:05.874Z,69.42
2019-04-30T09:39:05.935Z,70.09
2019-04-30T09:40:15.278Z,70.95
2019-04-30T09:41:06.050Z,70.47
2019-04-30T09:42:06.113Z,70.50
2019-04-30T09:43:06.169Z,70.79
2019-04-30T09:44:06.229Z,71.37
2019-04-30T09:45:06.285Z,71.59
2019-04-30T09:46:17.902Z,70.83
2019-04-30T09:47:06.402Z,70.25
2019-04-30T09:48:06.463Z,70.25
2019-04-30T09:49:06.526Z,70.35
2019-04-30T09:50:06.580Z,70.06
2019-04-30T09:51:07.121Z,69.07
2019-04-30T09:52:06.699Z,69.83
2019-04-30T09:53:06.758Z,70.60
2019-04-30T09:54:09.356Z,70.89
2019-04-30T09:55:06.898Z,70.79
2019-04-30T09:56:06.936Z,70.76
2019-04-30T09:57:09.109Z,72.42
2019-04-30T09:58:16.200Z,72.03
2019-04-30T09:59:09.020Z,70.95
2019-04-30T10:00:07.171Z,72.00
2019-04-30T10:01:09.278Z,72.09
2019-04-30T10:02:09.240Z,72.80
2019-04-30T10:03:09.728Z,72.13
2019-04-30T10:04:09.853Z,71.56
2019-04-30T10:05:07.844Z,71.56
2019-04-30T10:06:08.925Z,71.84
2019-04-30T10:07:09.581Z,71.59
2019-04-30T10:08:07.644Z,71.59
2019-04-30T10:09:09.570Z,70.86
2019-04-30T10:10:09.515Z,70.19
2019-04-30T10:11:09.691Z,69.42
2019-04-30T10:12:09.639Z,68.46
2019-04-30T10:13:07.939Z,67.99
2019-04-30T10:14:08.003Z,67.66
2019-04-30T10:15:09.148Z,68.72
2019-04-30T10:16:09.741Z,69.35
2019-04-30T10:17:09.545Z,69.07
2019-04-30T10:18:08.238Z,69.83
2019-04-30T10:19:10.125Z,70.73
2019-04-30T10:20:08.356Z,70.06
2019-04-30T10:21:09.133Z,70.54
2019-04-30T10:22:09.018Z,69.52
2019-04-30T10:23:09.493Z,69.23
2019-04-30T10:24:13.058Z,67.95
2019-04-30T10:25:09.248Z,67.69
2019-04-30T10:26:08.719Z,66.86
2019-04-30T10:27:13.065Z,65.33
2019-04-30T10:28:09.989Z,64.50
2019-04-30T10:29:08.906Z,63.06
2019-04-30T10:30:09.425Z,62.13
2019-04-30T10:31:09.027Z,62.52
2019-04-30T10:32:09.092Z,62.26
2019-04-30T10:33:10.009Z,61.91
2019-04-30T10:34:09.702Z,61.14
2019-04-30T10:35:09.277Z,61.16
2019-04-30T10:36:09.458Z,60.01
2019-04-30T10:37:09.431Z,61.04
2019-04-30T10:38:09.958Z,62.68
2019-04-30T10:39:09.532Z,61.71
2019-04-30T10:40:10.359Z,61.52
2019-04-30T10:41:09.664Z,60.08
2019-04-30T10:42:09.726Z,59.05
2019-04-30T10:43:09.791Z,58.40
2019-04-30T10:44:09.860Z,59.05
2019-04-30T10:45:10.092Z,58.31
2019-04-30T10:46:09.991Z,57.67
2019-04-30T10:47:10.053Z,57.50
2019-04-30T10:48:10.118Z,56.35
2019-04-30T10:49:10.183Z,57.02
2019-04-30T10:50:10.251Z,57.40
2019-04-30T10:51:10.315Z,57.25
2019-04-30T10:52:10.383Z,57.54
2019-04-30T10:53:12.418Z,58.22
2019-04-30T10:54:22.774Z,57.54
2019-04-30T10:55:10.581Z,58.80
2019-04-30T10:56:10.773Z,59.86
2019-04-30T10:57:10.714Z,58.92
2019-04-30T10:58:10.783Z,58.51
2019-04-30T10:59:10.848Z,58.28
2019-04-30T11:00:10.915Z,57.21
2019-04-30T11:01:10.980Z,55.57
2019-04-30T11:02:11.048Z,55.60
2019-04-30T11:03:19.861Z,55.70
2019-04-30T11:04:11.181Z,55.51
2019-04-30T11:05:11.247Z,56.22
2019-04-30T11:06:11.316Z,55.26
2019-04-30T11:07:11.432Z,53.91
2019-04-30T11:08:11.456Z,53.66
2019-04-30T11:09:11.518Z,55.52
2019-04-30T11:10:11.581Z,55.13
2019-04-30T11:11:11.650Z,54.20
2019-04-30T11:12:11.719Z,53.11
2019-04-30T11:13:11.783Z,53.11
2019-04-30T11:14:11.851Z,54.60
2019-04-30T11:15:11.925Z,56.23
2019-04-30T11:16:15.321Z,56.20
2019-04-30T11:17:12.197Z,55.09
2019-04-30T11:18:12.296Z,53.74
2019-04-30T11:19:12.418Z,54.22
2019-04-30T11:20:12.496Z,55.16
2019-04-30T11:21:12.497Z,56.00
2019-04-30T11:22:12.584Z,56.80
2019-04-30T11:23:14.721Z,56.15
2019-04-30T11:24:12.657Z,55.67
2019-04-30T11:25:12.631Z,55.35
2019-04-30T11:26:13.150Z,56.10
2019-04-30T11:27:13.375Z,56.29
2019-04-30T11:28:13.378Z,55.33
2019-04-30T11:29:13.019Z,54.97
2019-04-30T11:30:23.333Z,52.81
2019-04-30T11:31:13.154Z,52.25
2019-04-30T11:32:13.267Z,51.10
2019-04-30T11:33:13.376Z,50.84
2019-04-30T11:34:13.207Z,49.51
2019-04-30T11:35:13.262Z,49.80
2019-04-30T11:36:13.330Z,49.87
2019-04-30T11:37:13.396Z,51.56
2019-04-30T11:38:13.464Z,53.00
2019-04-30T11:39:13.531Z,52.71
2019-04-30T11:40:13.598Z,53.31
2019-04-30T11:41:13.668Z,53.51
2019-04-30T11:42:13.733Z,52.73
2019-04-30T11:43:13.801Z,51.92
2019-04-30T11:44:13.869Z,53.07
2019-04-30T11:45:13.935Z,52.52
2019-04-30T11:46:14.003Z,51.82
2019-04-30T11:47:14.073Z,52.01
2019-04-30T11:48:14.139Z,52.33
2019-04-30T11:49:14.208Z,51.97
2019-04-30T11:50:14.277Z,50.85
2019-04-30T11:51:14.343Z,50.95
2019-04-30T11:52:14.411Z,51.75
2019-04-30T11:53:25.245Z,50.74
2019-04-30T11:54:14.545Z,49.24
2019-04-30T11:55:14.615Z,49.87
2019-04-30T11:56:14.687Z,48.42
2019-04-30T11:57:14.746Z,48.06
2019-04-30T11:58:21.661Z,46.83
2019-04-30T11:59:14.884Z,46.78
2019-04-30T12:00:14.953Z,47.02
2019-04-30T12:01:15.019Z,46.92
2019-04-30T12:02:15.087Z,47.17
2019-04-30T12:03:15.155Z,49.05
2019-04-30T12:04:15.224Z,49.46
2019-04-30T12:05:16.068Z,48.33
2019-04-30T12:06:15.361Z,46.85
2019-04-30T12:07:15.427Z,46.25
2019-04-30T12:08:15.495Z,46.15
2019-04-30T12:09:15.567Z,46.83
2019-04-30T12:10:15.632Z,47.09
2019-04-30T12:11:15.699Z,47.31
2019-04-30T12:12:15.767Z,46.73
2019-04-30T12:13:15.835Z,47.31
2019-04-30T12:14:15.904Z,46.73
2019-04-30T12:15:15.973Z,46.85
2019-04-30T12:16:16.040Z,45.50
2019-04-30T12:17:16.109Z,46.15
2019-04-30T12:18:16.176Z,47.22
2019-04-30T12:19:16.244Z,48.25
2019-04-30T12:20:16.312Z,48.59
2019-04-30T12:21:16.379Z,47.87
2019-04-30T12:22:20.049Z,46.92
2019-04-30T12:23:16.517Z,47.17
2019-04-30T12:24:16.585Z,47.65
2019-04-30T12:25:18.561Z,48.69
2019-04-30T12:26:18.949Z,48.35
2019-04-30T12:27:18.417Z,46.59
2019-04-30T12:28:16.857Z,46.86
2019-04-30T12:29:18.992Z,48.33
2019-04-30T12:30:20.569Z,47.29
2019-04-30T12:31:18.701Z,46.83
2019-04-30T12:32:17.130Z,45.76
2019-04-30T12:33:19.079Z,45.38
2019-04-30T12:34:17.661Z,45.28
2019-04-30T12:35:17.334Z,44.84
2019-04-30T12:36:18.911Z,44.15
2019-04-30T12:37:19.102Z,44.87
2019-04-30T12:38:19.173Z,44.02
2019-04-30T12:39:17.617Z,42.93
2019-04-30T12:40:26.725Z,44.22
2019-04-30T12:41:17.741Z,45.16
2019-04-30T12:42:18.845Z,46.03
2019-04-30T12:43:17.881Z,47.94
2019-04-30T12:44:17.946Z,48.93
2019-04-30T12:45:19.445Z,47.72
2019-04-30T12:46:21.061Z,47.33
2019-04-30T12:47:21.752Z,47.24
2019-04-30T12:48:20.079Z,45.64
2019-04-30T12:49:18.989Z,45.40
2019-04-30T12:50:19.522Z,46.00
2019-04-30T12:51:18.426Z,45.74
2019-04-30T12:52:19.606Z,45.69
2019-04-30T12:53:18.561Z,45.40